Time;durP1;ratioP1;P1;durP2;ratioP2;P2;SDS_P1;SDS_P2;PMS_P1;PMS_P2;Temp;Humidity;BMP_temperature;BMP_pressure;BME280_temperature;BME280_humidity;BME280_pressure;Samples;Min_cycle;Max_cycle;Signal;HPM_P1;HPM_P2
2022/01/23 00:01:32;;;;;;;;;44.50;33.75;;;;;7.61;61.22;103139.47;5096967;27;45404;-73
2022/01/23 00:03:58;;;;;;;;;44.25;33.00;;;;;7.64;61.47;103133.56;5094909;27;45347;-74
2022/01/23 00:06:24;;;;;;;;;41.50;36.25;;;;;7.77;61.18;103155.94;5065548;27;45576;-73
2022/01/23 00:08:50;;;;;;;;;47.00;36.25;;;;;7.52;61.15;103118.16;5053998;27;47649;-73
2022/01/23 00:11:17;;;;;;;;;47.50;36.50;;;;;7.73;61.69;103148.78;5043081;27;45663;-74
2022/01/23 00:19:19;;;;;;;;;43.00;33.75;;;;;7.80;61.42;103156.09;5093746;27;45738;-73
2022/01/23 00:21:47;;;;;;;;;47.50;36.00;;;;;8.04;61.41;103196.53;5070863;27;45381;-74
2022/01/23 00:32:06;;;;;;;;;42.00;33.50;;;;;7.03;61.49;103006.09;5094198;27;45607;-74
2022/01/23 00:34:32;;;;;;;;;44.25;37.25;;;;;7.74;61.20;103138.44;5094437;27;45393;-74
2022/01/23 00:36:57;;;;;;;;;50.50;36.25;;;;;7.64;61.13;103110.09;5098120;27;45565;-74
2022/01/23 00:39:23;;;;;;;;;47.00;38.25;;;;;8.04;60.93;103193.94;5109893;27;47905;-75
2022/01/23 00:41:48;;;;;;;;;53.00;40.00;;;;;7.96;61.00;103184.78;5111009;27;45676;-74
2022/01/23 00:44:14;;;;;;;;;52.00;40.25;;;;;7.65;61.12;103136.22;5112868;27;45473;-75
2022/01/23 00:46:48;;;;;;;;;50.25;39.00;;;;;7.78;61.06;103176.91;5094560;27;45342;-73
2022/01/23 00:49:24;;;;;;;;;52.75;42.00;;;;;7.30;61.74;103105.69;5094546;27;45580;-73
2022/01/23 00:51:51;;;;;;;;;53.00;40.25;;;;;7.22;61.73;103101.78;5094038;27;45519;-75
2022/01/23 00:54:16;;;;;;;;;52.50;41.50;;;;;7.53;61.94;103166.00;5094169;27;45556;-73
2022/01/23 00:56:42;;;;;;;;;56.75;41.75;;;;;7.10;62.15;103121.97;5094443;27;45427;-72
2022/01/23 00:59:07;;;;;;;;;49.75;36.75;;;;;6.48;62.24;103010.94;5096753;27;45664;-72
2022/01/23 01:01:34;;;;;;;;;50.50;39.75;;;;;7.38;62.90;103163.44;5096844;27;45982;-74
2022/01/23 01:04:00;;;;;;;;;42.00;37.00;;;;;6.79;62.70;103049.97;5095964;27;45473;-73
2022/01/23 01:06:25;;;;;;;;;48.75;38.25;;;;;7.13;63.71;103096.97;5099090;27;45411;-73
2022/01/23 01:08:54;;;;;;;;;51.75;39.00;;;;;7.35;62.42;103122.47;5094218;27;45702;-74
2022/01/23 01:11:54;;;;;;;;;52.00;36.25;;;;;7.09;62.37;103068.94;5094323;27;45437;-73
2022/01/23 01:14:25;;;;;;;;;46.75;36.25;;;;;7.65;62.02;103164.03;5100204;27;45494;-73
2022/01/23 01:35:33;;;;;;;;;50.50;36.75;;;;;7.71;61.48;103142.56;4974138;28;45694;-74
2022/01/23 01:37:59;;;;;;;;;39.25;34.00;;;;;7.33;61.45;103065.84;4978417;28;45554;-73
2022/01/23 01:40:26;;;;;;;;;45.25;34.00;;;;;7.73;61.31;103136.63;4977897;28;46340;-73
2022/01/23 01:42:52;;;;;;;;;49.50;38.25;;;;;7.18;60.99;103032.94;4958336;28;45409;-73
2022/01/23 01:45:24;;;;;;;;;51.25;35.00;;;;;7.58;61.33;103108.03;4974004;28;45442;-73
2022/01/23 01:47:51;;;;;;;;;34.00;29.75;;;;;7.42;60.96;103068.94;4973956;28;45392;-74
2022/01/23 01:50:17;;;;;;;;;49.75;37.75;;;;;7.88;61.11;103154.81;4956134;28;46326;-75
2022/01/23 01:52:43;;;;;;;;;50.25;38.00;;;;;7.72;60.99;103126.13;4956339;28;45411;-75
2022/01/23 01:55:12;;;;;;;;;49.25;37.00;;;;;7.20;61.19;103061.69;4956267;28;45527;-75
2022/01/23 01:57:50;;;;;;;;;45.75;36.50;;;;;7.37;61.03;103080.84;4973766;28;45394;-74
2022/01/23 02:00:39;;;;;;;;;48.75;38.00;;;;;7.79;61.48;103167.38;4973545;28;45508;-73
2022/01/23 02:03:23;;;;;;;;;41.00;35.50;;;;;7.37;61.32;103075.63;4978258;28;45244;-73
2022/01/23 02:08:33;;;;;;;;;45.75;35.00;;;;;7.35;61.28;103059.88;4974272;28;45267;-73
2022/01/23 02:11:23;;;;;;;;;44.50;34.25;;;;;7.85;61.34;103147.72;4973729;28;45470;-74
2022/01/23 02:14:08;;;;;;;;;43.00;34.00;;;;;7.36;60.86;103074.72;4956268;28;45779;-74
2022/01/23 02:25:13;;;;;;;;;45.75;35.50;;;;;6.67;61.90;103046.66;4977381;28;45436;-74
2022/01/23 02:53:18;;;;;;;;;35.75;32.25;;;;;6.87;62.32;103097.25;4977583;28;45397;-73
2022/01/23 02:55:12;;;;;;;;;40.50;31.75;;;;;6.63;62.54;103060.34;4968658;28;45477;-74
2022/01/23 02:57:53;;;;;;;;;34.00;29.25;;;;;6.56;62.41;103043.47;4973378;28;45408;-73
2022/01/23 03:00:20;;;;;;;;;38.00;33.75;;;;;6.84;62.41;103094.50;4975875;28;45376;-73
2022/01/23 03:02:50;;;;;;;;;47.50;35.25;;;;;6.57;62.77;103071.28;4978332;28;45473;-74
2022/01/23 03:10:27;;;;;;;;;40.75;31.75;;;;;6.39;63.04;103026.91;4973114;28;45705;-74
2022/01/23 03:26:52;;;;;;;;;39.00;33.50;;;;;6.22;62.81;103036.38;4975723;28;45420;-75
2022/01/23 03:29:39;;;;;;;;;43.75;34.50;;;;;6.28;63.31;103039.31;4972913;28;45443;-73
2022/01/23 03:32:19;;;;;;;;;45.00;35.25;;;;;5.81;63.20;102984.56;4972475;28;45358;-73
2022/01/23 03:34:45;;;;;;;;;44.25;32.75;;;;;6.02;63.46;103031.75;4972906;28;45497;-74
2022/01/23 03:37:11;;;;;;;;;44.25;32.00;;;;;6.39;64.10;103093.72;4972558;28;45359;-74
2022/01/23 03:39:36;;;;;;;;;43.25;34.00;;;;;6.41;63.59;103090.38;4954937;28;45375;-72
2022/01/23 03:42:02;;;;;;;;;40.50;32.25;;;;;5.46;62.96;102929.72;4972943;28;45469;-74
2022/01/23 03:44:28;;;;;;;;;43.75;32.00;;;;;6.33;63.93;103087.31;4972301;28;45436;-74
2022/01/23 03:47:20;;;;;;;;;38.50;33.75;;;;;6.32;63.61;103097.66;4972835;28;46231;-75
2022/01/23 03:49:48;;;;;;;;;53.75;35.00;;;;;5.84;64.34;103009.03;4974607;28;45735;-75
2022/01/23 03:52:15;;;;;;;;;41.25;32.25;;;;;6.22;64.01;103085.84;4972808;28;45457;-75
2022/01/23 03:54:41;;;;;;;;;44.75;34.25;;;;;6.22;64.57;103104.06;4972898;28;45811;-74
2022/01/23 03:57:08;;;;;;;;;38.75;34.00;;;;;6.09;64.36;103054.69;4975794;28;46058;-73
2022/01/23 03:59:34;;;;;;;;;42.75;35.75;;;;;6.10;64.52;103040.91;4976328;28;45292;-73
2022/01/23 04:02:01;;;;;;;;;42.50;32.75;;;;;6.41;64.31;103085.19;4975272;28;45403;-73
2022/01/23 04:04:42;;;;;;;;;40.75;33.50;;;;;6.23;64.08;103059.00;4955210;28;45902;-74
2022/01/23 04:07:13;;;;;;;;;42.00;29.75;;;;;6.20;64.13;103022.41;4972726;28;46294;-73
2022/01/23 04:09:40;;;;;;;;;38.25;31.50;;;;;6.33;63.70;103036.97;4975908;28;45501;-73
2022/01/23 04:12:09;;;;;;;;;40.00;33.00;;;;;6.48;63.49;103052.59;4975570;28;45536;-74
2022/01/23 04:14:36;;;;;;;;;46.50;35.25;;;;;6.47;63.53;103045.56;4972517;28;45313;-75
2022/01/23 04:45:09;;;;;;;;;37.00;33.00;;;;;6.97;62.97;103090.00;4972574;28;45843;-72
2022/01/23 05:00:47;;;;;;;;;36.75;30.75;;;;;6.51;62.29;102959.91;4892313;28;45570;-73
2022/01/23 05:06:03;;;;;;;;;40.50;31.00;;;;;6.74;61.94;103028.88;4971753;28;45412;-74
2022/01/23 05:08:33;;;;;;;;;40.00;33.25;;;;;7.04;62.00;103091.25;4976512;28;45438;-75
2022/01/23 05:11:00;;;;;;;;;43.25;34.25;;;;;6.72;62.12;103051.31;4973981;28;45441;-75
2022/01/23 05:13:29;;;;;;;;;42.25;33.25;;;;;6.76;62.71;103071.53;4971601;28;45485;-74
2022/01/23 05:15:55;;;;;;;;;46.75;33.25;;;;;6.16;62.39;102978.78;4971382;28;45496;-73
2022/01/23 05:18:21;;;;;;;;;37.25;32.25;;;;;6.28;62.45;103018.50;4971344;28;45505;-74
2022/01/23 05:20:50;;;;;;;;;34.75;28.25;;;;;6.14;62.89;102994.31;4971450;28;46038;-75
2022/01/23 05:23:15;;;;;;;;;24.25;24.25;;;;;6.56;62.50;103074.72;4971314;28;45667;-73
2022/01/23 05:25:42;;;;;;;;;39.50;32.00;;;;;6.02;62.64;102990.13;4971678;28;45345;-74
2022/01/23 05:28:08;;;;;;;;;35.25;30.25;;;;;5.85;62.93;102990.03;4953691;28;45550;-74
2022/01/23 05:30:35;;;;;;;;;28.75;26.50;;;;;5.56;62.27;102951.06;4971055;28;47114;-73
2022/01/23 05:33:01;;;;;;;;;45.00;33.00;;;;;6.34;63.18;103096.06;4971169;28;45486;-74
2022/01/23 05:35:29;;;;;;;;;27.25;25.75;;;;;6.09;63.62;103059.91;4976841;28;45386;-74
2022/01/23 05:37:54;;;;;;;;;38.00;28.25;;;;;5.74;63.98;102998.91;4974746;28;45350;-73
2022/01/23 05:40:23;;;;;;;;;36.25;27.25;;;;;6.20;63.65;103100.47;4972592;27;46433;-73
2022/01/23 05:42:49;;;;;;;;;37.50;27.50;;;;;5.53;63.99;102994.25;4982078;27;45586;-73
2022/01/23 05:45:15;;;;;;;;;47.50;35.25;;;;;5.51;64.40;102988.06;4975424;28;46061;-73
2022/01/23 05:47:41;;;;;;;;;38.75;30.50;;;;;6.07;64.72;103085.81;4971251;28;45612;-73
2022/01/23 05:50:18;;;;;;;;;34.25;23.75;;;;;6.03;64.97;103099.50;4970841;28;45346;-73
2022/01/23 05:52:44;;;;;;;;;37.75;29.75;;;;;5.80;65.23;103061.69;4969591;28;45384;-75
2022/01/23 05:55:11;;;;;;;;;42.50;32.00;;;;;5.72;64.92;103049.94;4970833;28;45484;-74
2022/01/23 05:57:37;;;;;;;;;38.00;31.00;;;;;5.93;64.83;103092.81;4956241;28;45627;-75
2022/01/23 06:00:04;;;;;;;;;42.50;29.75;;;;;5.87;65.22;103094.16;4959214;28;47003;-75
2022/01/23 06:02:29;;;;;;;;;35.00;26.25;;;;;5.78;65.75;103065.88;4959419;28;45574;-74
2022/01/23 06:04:55;;;;;;;;;37.75;29.25;;;;;5.67;64.64;103056.56;4956427;28;45529;-73
2022/01/23 06:07:21;;;;;;;;;38.00;29.50;;;;;5.56;64.72;103029.94;4973163;28;46199;-74
2022/01/23 06:09:47;;;;;;;;;31.50;24.00;;;;;5.44;65.01;103024.91;4973543;28;45871;-73
2022/01/23 06:12:12;;;;;;;;;33.25;28.25;;;;;5.84;65.05;103109.59;4976265;28;45364;-74
2022/01/23 06:14:38;;;;;;;;;34.50;27.50;;;;;5.73;65.07;103088.13;4973690;28;46003;-74
2022/01/23 06:17:04;;;;;;;;;32.25;28.75;;;;;5.87;65.01;103110.66;4986611;27;45534;-73
2022/01/23 06:19:29;;;;;;;;;31.00;27.25;;;;;5.23;65.07;102997.63;4986049;27;46120;-75
2022/01/23 06:21:55;;;;;;;;;33.75;27.00;;;;;5.90;65.83;103104.72;4974703;28;45395;-73
2022/01/23 06:24:29;;;;;;;;;28.50;26.00;;;;;5.80;64.67;103098.09;4976436;28;45670;-75
2022/01/23 06:27:01;;;;;;;;;25.25;21.50;;;;;5.85;65.35;103107.06;4967994;28;45515;-73
2022/01/23 06:29:30;;;;;;;;;27.75;22.50;;;;;5.32;64.91;103006.00;4976850;28;45441;-73
2022/01/23 06:32:03;;;;;;;;;25.25;25.00;;;;;5.78;65.33;103083.19;4976814;28;45517;-74
2022/01/23 06:34:30;;;;;;;;;24.25;20.25;;;;;5.76;64.69;103075.31;4981534;28;45835;-73
2022/01/23 06:36:57;;;;;;;;;22.00;19.50;;;;;5.97;64.95;103109.53;4974012;28;45433;-74
2022/01/23 06:39:24;;;;;;;;;28.50;19.50;;;;;6.00;64.68;103101.00;4976477;28;45478;-75
2022/01/23 06:41:50;;;;;;;;;22.00;18.00;;;;;5.53;64.53;103038.44;4976940;28;45430;-75
2022/01/23 06:44:16;;;;;;;;;25.75;18.25;;;;;5.96;64.80;103105.13;4990517;27;45823;-75
2022/01/23 06:46:43;;;;;;;;;22.25;19.75;;;;;5.92;64.86;103098.81;4994517;27;45524;-73
2022/01/23 06:49:10;;;;;;;;;23.75;20.00;;;;;5.79;64.67;103078.09;4996771;27;45469;-74
2022/01/23 06:51:36;;;;;;;;;24.75;20.25;;;;;5.97;64.67;103099.13;4996948;27;45427;-73
2022/01/23 06:54:02;;;;;;;;;24.50;18.00;;;;;6.05;64.71;103095.28;4997402;27;45278;-74
2022/01/23 06:56:28;;;;;;;;;23.75;17.75;;;;;5.39;64.25;102969.16;4997449;27;45305;-73
2022/01/23 06:58:54;;;;;;;;;24.25;19.00;;;;;5.46;63.57;102994.72;4997207;27;46186;-74
2022/01/23 07:01:20;;;;;;;;;23.00;18.50;;;;;6.08;63.67;103117.97;4995122;27;45342;-73
2022/01/23 07:03:45;;;;;;;;;22.00;16.25;;;;;5.95;63.65;103101.63;4992701;27;45566;-75
2022/01/23 07:06:11;;;;;;;;;20.00;16.25;;;;;5.56;63.68;103035.13;4995214;27;45513;-74
2022/01/23 07:08:37;;;;;;;;;25.50;18.75;;;;;5.55;64.12;103033.31;4996806;27;45442;-74
2022/01/23 07:11:02;;;;;;;;;24.00;17.75;;;;;5.50;64.09;103032.16;4990810;28;45297;-74
2022/01/23 07:13:28;;;;;;;;;19.00;17.25;;;;;5.69;64.06;103060.16;4997179;27;45333;-74
2022/01/23 07:15:54;;;;;;;;;21.50;19.50;;;;;5.47;64.70;103030.28;4992053;27;45472;-74
2022/01/23 07:18:21;;;;;;;;;23.25;19.00;;;;;5.61;64.30;103051.91;4976673;28;45513;-74
2022/01/23 07:20:47;;;;;;;;;23.50;20.00;;;;;5.93;65.10;103111.03;4975435;28;45398;-74
2022/01/23 07:23:14;;;;;;;;;27.50;18.75;;;;;5.97;64.71;103116.44;4982046;28;45389;-73
2022/01/23 07:25:41;;;;;;;;;27.50;22.50;;;;;5.96;64.92;103110.34;4996609;27;45524;-74
2022/01/23 07:28:15;;;;;;;;;20.50;15.50;;;;;5.93;65.00;103116.22;4993425;27;45650;-74
2022/01/23 07:33:10;;;;;;;;;24.50;19.00;;;;;5.29;65.38;103013.56;4992941;28;45263;-73
2022/01/23 07:35:36;;;;;;;;;27.00;22.00;;;;;5.50;64.59;103050.34;4993215;27;45374;-75
2022/01/23 07:38:02;;;;;;;;;23.50;20.75;;;;;4.85;64.57;102941.69;4992400;27;46434;-75
2022/01/23 07:40:28;;;;;;;;;23.75;18.00;;;;;5.46;65.18;103056.19;4995212;27;45510;-76
2022/01/23 07:42:53;;;;;;;;;21.00;18.00;;;;;4.92;63.86;102964.63;4992559;27;45378;-75
2022/01/23 07:45:19;;;;;;;;;18.75;14.00;;;;;5.49;64.64;103080.66;4992708;27;45504;-75
2022/01/23 07:47:45;;;;;;;;;22.00;17.00;;;;;5.03;64.37;103002.53;4991798;27;46203;-74
2022/01/23 07:50:11;;;;;;;;;23.75;16.75;;;;;5.70;64.73;103111.34;4992396;27;45448;-74
2022/01/23 07:52:38;;;;;;;;;21.00;15.00;;;;;5.27;64.86;103043.78;4992179;27;45373;-75
2022/01/23 07:55:09;;;;;;;;;17.25;14.50;;;;;5.50;64.63;103094.53;4996492;27;45540;-76
2022/01/23 07:57:36;;;;;;;;;21.50;19.00;;;;;4.93;64.79;102981.09;4994341;27;45467;-76
2022/01/23 08:00:10;;;;;;;;;21.00;17.00;;;;;5.79;64.85;103116.19;4992428;27;45438;-75
2022/01/23 08:02:35;;;;;;;;;21.25;17.50;;;;;5.29;64.46;103027.50;4995789;27;45495;-76
2022/01/23 08:05:01;;;;;;;;;26.50;19.75;;;;;5.45;64.29;103060.47;4996067;27;45583;-75
2022/01/23 08:09:58;;;;;;;;;30.00;22.50;;;;;5.83;64.51;103131.19;4991914;27;45331;-74
2022/01/23 08:12:29;;;;;;;;;25.25;20.25;;;;;5.57;64.52;103096.72;4994047;27;45466;-74
2022/01/23 08:14:56;;;;;;;;;24.00;20.00;;;;;5.38;63.93;103062.63;4976342;28;45511;-74
2022/01/23 08:17:25;;;;;;;;;25.00;19.50;;;;;5.25;64.57;103064.47;4992356;27;45739;-75
2022/01/23 08:19:52;;;;;;;;;30.50;25.75;;;;;5.74;64.47;103140.25;4992300;27;45315;-75
2022/01/23 08:22:19;;;;;;;;;25.75;21.75;;;;;5.79;64.28;103145.72;4991011;27;45295;-73
2022/01/23 08:24:45;;;;;;;;;29.00;22.00;;;;;5.65;64.23;103131.00;4974414;27;45529;-77
2022/01/23 08:27:10;;;;;;;;;22.00;19.50;;;;;5.81;64.79;103157.09;4991431;27;45345;-77
2022/01/23 08:29:36;;;;;;;;;24.50;19.25;;;;;5.57;64.82;103104.50;4991372;27;45432;-78
2022/01/23 08:32:01;;;;;;;;;32.75;27.50;;;;;5.74;64.86;103126.31;4991699;27;45641;-77
2022/01/23 08:34:27;;;;;;;;;28.50;24.25;;;;;4.83;64.44;102972.72;4992053;27;45479;-75
2022/01/23 08:36:55;;;;;;;;;27.50;23.75;;;;;5.14;64.51;103051.63;4985091;27;45494;-74
2022/01/23 08:39:22;;;;;;;;;24.50;21.00;;;;;4.96;64.27;103015.94;4978203;28;45491;-77
2022/01/23 08:41:50;;;;;;;;;28.50;23.25;;;;;5.11;65.07;103036.75;4975350;28;45436;-74
2022/01/23 08:44:20;;;;;;;;;28.75;20.25;;;;;5.18;64.70;103051.03;4975080;27;45462;-75
2022/01/23 08:46:47;;;;;;;;;18.25;16.50;;;;;5.76;64.47;103161.13;4971689;28;46250;-73
2022/01/23 08:49:13;;;;;;;;;22.00;16.00;;;;;5.57;64.62;103129.59;4972421;28;45802;-73
2022/01/23 08:51:38;;;;;;;;;26.50;19.50;;;;;5.58;64.62;103121.03;4991658;28;45631;-72
2022/01/23 08:54:07;;;;;;;;;24.50;17.25;;;;;5.56;66.37;103114.84;4991834;27;45356;-72
2022/01/23 08:56:33;;;;;;;;;25.75;18.25;;;;;5.89;64.48;103154.97;4993234;27;45517;-78
2022/01/23 08:58:58;;;;;;;;;20.00;14.75;;;;;5.40;64.37;103069.69;4977074;27;45473;-81
2022/01/23 09:01:25;;;;;;;;;18.75;17.25;;;;;6.05;64.22;103156.78;4973681;28;45636;-80
2022/01/23 09:03:51;;;;;;;;;26.75;20.25;;;;;6.06;64.33;103148.19;4981932;27;45527;-81
2022/01/23 09:06:16;;;;;;;;;25.00;19.75;;;;;5.79;64.04;103111.91;5014051;27;45553;-81
2022/01/23 09:08:42;;;;;;;;;25.25;18.00;;;;;5.96;64.23;103146.75;4999585;27;45326;-81
2022/01/23 09:11:24;;;;;;;;;31.00;20.25;;;;;5.92;64.30;103158.63;5014797;27;45367;-80
2022/01/23 09:16:16;;;;;;;;;22.25;19.00;;;;;5.46;65.20;103097.78;5004344;27;45980;-75
2022/01/23 09:18:42;;;;;;;;;28.75;22.25;;;;;5.41;64.47;103071.50;5012074;27;45444;-79
2022/01/23 09:21:08;;;;;;;;;29.50;22.50;;;;;5.90;64.10;103151.56;5005237;27;45396;-76
2022/01/23 09:23:34;;;;;;;;;28.50;23.75;;;;;5.88;64.20;103164.44;5009334;27;45313;-74
2022/01/23 09:26:09;;;;;;;;;24.25;20.00;;;;;5.60;64.41;103124.59;4997156;27;46622;-75
2022/01/23 09:28:36;;;;;;;;;26.25;20.00;;;;;4.99;65.24;103029.09;5010410;27;45460;-75
2022/01/23 09:31:02;;;;;;;;;22.25;19.25;;;;;5.08;65.19;103066.03;4993535;27;45647;-75
2022/01/23 09:33:28;;;;;;;;;25.25;21.75;;;;;5.14;65.25;103078.50;5012595;27;45552;-77
2022/01/23 09:35:54;;;;;;;;;23.50;18.50;;;;;5.72;64.41;103167.84;4996014;27;47160;-78
2022/01/23 09:38:20;;;;;;;;;25.25;19.25;;;;;5.74;64.65;103173.13;5016393;27;45303;-71
2022/01/23 09:40:51;;;;;;;;;29.00;20.00;;;;;5.74;65.04;103170.53;5017787;27;45313;-71
2022/01/23 09:43:19;;;;;;;;;17.75;16.00;;;;;5.74;63.71;103161.03;5018252;27;45350;-70
2022/01/23 09:45:47;;;;;;;;;25.25;19.50;;;;;5.81;64.11;103179.59;5015996;27;45456;-70
2022/01/23 09:48:15;;;;;;;;;25.25;18.00;;;;;5.77;63.99;103154.25;5013822;27;45589;-72
2022/01/23 09:50:44;;;;;;;;;18.00;15.25;;;;;5.77;64.29;103152.53;5013773;27;45474;-73
2022/01/23 09:53:12;;;;;;;;;22.75;17.75;;;;;5.66;63.69;103119.78;5013668;27;45323;-74
2022/01/23 09:55:40;;;;;;;;;19.75;14.25;;;;;5.85;63.51;103150.38;5016617;27;46132;-73
2022/01/23 09:58:06;;;;;;;;;17.00;15.25;;;;;5.31;63.84;103059.66;5013409;27;45415;-73
2022/01/23 10:00:33;;;;;;;;;20.50;12.75;;;;;5.06;63.57;103031.28;4995891;27;45798;-76
2022/01/23 10:02:59;;;;;;;;;19.00;11.25;;;;;5.44;63.59;103095.09;5014103;27;45303;-76
2022/01/23 10:05:26;;;;;;;;;21.75;17.00;;;;;5.88;63.26;103166.16;5016012;27;45416;-75
2022/01/23 10:07:53;;;;;;;;;18.25;14.25;;;;;5.82;63.96;103174.50;5017487;27;45729;-77
2022/01/23 10:10:25;;;;;;;;;13.25;12.50;;;;;5.22;64.21;103066.91;5017753;27;45311;-76
2022/01/23 10:12:55;;;;;;;;;18.75;16.00;;;;;5.23;64.38;103084.28;5017775;27;45388;-76
2022/01/23 10:15:25;;;;;;;;;22.75;17.50;;;;;5.48;64.44;103155.94;4999683;27;46477;-75
2022/01/23 10:17:51;;;;;;;;;20.25;16.75;;;;;5.63;64.14;103177.69;5015541;27;45491;-76
2022/01/23 10:20:17;;;;;;;;;19.25;14.75;;;;;4.88;64.65;103053.50;5014299;27;45744;-76
2022/01/23 10:22:46;;;;;;;;;17.00;14.75;;;;;5.19;64.84;103108.25;4997139;27;45348;-75
2022/01/23 10:25:16;;;;;;;;;19.25;18.50;;;;;5.42;64.42;103132.19;5004735;27;45522;-75
2022/01/23 10:28:08;;;;;;;;;16.75;13.25;;;;;5.68;64.92;103162.38;4996658;27;45769;-74
2022/01/23 10:30:41;;;;;;;;;18.75;14.75;;;;;5.72;64.51;103173.06;4998200;27;45486;-78
2022/01/23 10:33:15;;;;;;;;;19.00;14.75;;;;;5.68;64.10;103171.06;4996821;27;45235;-79
2022/01/23 10:36:04;;;;;;;;;18.25;15.75;;;;;5.61;65.69;103173.19;4975634;27;47957;-74
2022/01/23 10:38:54;;;;;;;;;15.50;13.25;;;;;4.55;65.54;102990.88;4993446;27;46077;-74
2022/01/23 10:41:47;;;;;;;;;18.75;16.50;;;;;5.40;64.93;103144.19;4998028;27;45695;-74
2022/01/23 10:47:49;;;;;;;;;16.75;14.50;;;;;5.00;65.06;103069.84;4993510;27;45848;-74
2022/01/23 10:49:58;;;;;;;;;16.00;16.00;;;;;5.55;64.47;103142.50;4990149;27;45488;-75
2022/01/23 10:52:40;;;;;;;;;17.25;15.25;;;;;5.68;64.21;103165.88;4994823;27;45538;-75
2022/01/23 10:55:06;;;;;;;;;17.00;14.25;;;;;5.71;64.80;103154.75;4993147;27;45280;-74
2022/01/23 10:57:37;;;;;;;;;20.50;17.75;;;;;5.07;64.87;103060.75;4994749;27;47978;-77
2022/01/23 11:00:05;;;;;;;;;19.75;16.00;;;;;4.98;64.41;103045.47;4997420;27;45603;-77
2022/01/23 11:02:31;;;;;;;;;19.00;13.25;;;;;4.98;65.00;103052.38;4997737;28;45438;-77
2022/01/23 11:05:00;;;;;;;;;21.50;15.50;;;;;5.01;64.60;103058.69;4997796;27;45428;-76
2022/01/23 11:07:28;;;;;;;;;18.50;17.50;;;;;5.51;65.10;103154.44;4994966;27;46429;-75
2022/01/23 11:10:04;;;;;;;;;17.50;15.25;;;;;5.37;66.73;103125.81;4992615;27;45349;-76
2022/01/23 11:17:20;;;;;;;;;14.75;14.50;;;;;5.18;65.07;103071.81;4992586;27;45383;-72
2022/01/23 11:18:30;;;;;;;;;25.00;19.00;;;;;5.61;64.76;103139.41;4996665;27;45712;-75
2022/01/23 11:20:55;;;;;;;;;16.75;15.00;;;;;5.43;65.42;103120.97;4996463;27;45536;-73
2022/01/23 11:23:27;;;;;;;;;22.00;18.50;;;;;5.33;65.67;103109.13;4996551;28;45433;-73
2022/01/23 11:25:55;;;;;;;;;13.75;12.25;;;;;5.46;65.44;103119.47;4996952;27;45470;-73
2022/01/23 11:28:38;;;;;;;;;16.75;16.75;;;;;5.40;65.85;103129.47;4996977;27;46172;-73
2022/01/23 11:31:08;;;;;;;;;18.25;14.25;;;;;5.41;66.10;103120.91;4993497;27;45420;-74
2022/01/23 11:33:34;;;;;;;;;23.50;17.25;;;;;5.46;65.76;103114.28;4992381;27;45461;-76
2022/01/23 11:36:01;;;;;;;;;24.75;18.00;;;;;5.44;65.68;103123.66;4993446;27;45659;-77
2022/01/23 11:38:28;;;;;;;;;19.75;15.75;;;;;5.14;65.67;103083.69;4996252;27;46619;-75
2022/01/23 11:55:06;;;;;;;;;15.00;12.50;;;;;5.63;64.07;103109.19;4994863;27;45378;-75
2022/01/23 11:57:42;;;;;;;;;14.50;13.25;;;;;5.65;64.39;103103.28;4973637;27;45437;-78
2022/01/23 12:00:23;;;;;;;;;15.50;12.25;;;;;5.29;64.12;103037.88;4994646;27;45599;-78
2022/01/23 12:03:21;;;;;;;;;19.75;16.00;;;;;5.46;64.31;103090.00;4973772;28;45429;-75
2022/01/23 12:06:10;;;;;;;;;20.50;16.00;;;;;5.43;63.60;103089.78;5015343;28;45430;-74
2022/01/23 12:08:36;;;;;;;;;16.25;13.00;;;;;5.41;64.21;103087.09;4996632;27;45454;-74
2022/01/23 12:17:01;;;;;;;;;16.50;14.50;;;;;5.31;64.57;103096.06;4996654;27;45465;-77
2022/01/23 12:19:29;;;;;;;;;18.50;15.50;;;;;4.92;64.49;103008.75;4996265;27;45485;-74
2022/01/23 12:21:58;;;;;;;;;20.50;18.25;;;;;4.81;64.58;103002.00;4996481;27;46116;-73
2022/01/23 12:24:25;;;;;;;;;14.75;11.50;;;;;5.22;65.16;103063.38;4994716;28;45338;-76
2022/01/23 12:27:12;;;;;;;;;22.50;19.00;;;;;4.80;65.23;102988.13;4973444;28;45503;-73
2022/01/23 12:29:38;;;;;;;;;18.50;17.50;;;;;5.10;65.20;103042.75;4973576;28;45339;-74
2022/01/23 12:32:27;;;;;;;;;23.50;18.25;;;;;4.61;64.81;102922.91;4974371;28;46357;-75
2022/01/23 12:34:58;;;;;;;;;21.75;19.25;;;;;5.42;64.77;103054.22;4992593;27;45672;-76
2022/01/23 12:37:25;;;;;;;;;23.00;18.50;;;;;5.40;65.11;103051.50;4991487;27;45551;-74
2022/01/23 12:40:22;;;;;;;;;20.75;18.25;;;;;5.47;64.66;103048.47;4991354;27;45630;-74
2022/01/23 12:43:06;;;;;;;;;20.25;16.00;;;;;5.23;64.33;102982.03;4995214;27;45611;-75
2022/01/23 12:45:49;;;;;;;;;20.00;17.50;;;;;5.22;64.48;102965.56;4977578;28;45793;-75
2022/01/23 12:48:27;;;;;;;;;17.25;16.75;;;;;5.67;64.36;103039.28;4995932;28;45353;-76
2022/01/23 12:50:57;;;;;;;;;24.50;20.75;;;;;5.73;64.24;103037.00;4991753;27;45331;-73
2022/01/23 12:53:41;;;;;;;;;18.75;16.00;;;;;5.69;63.68;103008.13;4992625;27;45859;-74
2022/01/23 12:56:10;;;;;;;;;19.00;15.50;;;;;5.74;64.65;103022.31;4992507;27;45495;-74
2022/01/23 12:58:36;;;;;;;;;22.50;18.75;;;;;4.88;64.07;102880.41;4973124;28;45396;-74
2022/01/23 13:01:08;;;;;;;;;29.00;21.00;;;;;5.04;64.33;102913.41;4995417;28;45386;-74
2022/01/23 13:03:37;;;;;;;;;31.00;22.00;;;;;5.42;64.83;102960.66;4977842;27;46550;-74
2022/01/23 13:06:06;;;;;;;;;25.25;21.25;;;;;5.72;65.13;103010.94;4995440;28;45603;-74
2022/01/23 13:08:36;;;;;;;;;29.25;19.50;;;;;5.72;64.41;103008.34;4997625;27;45248;-75
2022/01/23 13:13:39;;;;;;;;;33.25;24.50;;;;;5.06;64.26;102897.91;4994404;27;45539;-74
2022/01/23 13:18:51;;;;;;;;;21.50;19.50;;;;;5.21;64.42;102893.59;4994696;27;45941;-74
2022/01/23 13:32:43;;;;;;;;;16.75;14.75;;;;;5.56;64.06;102958.84;4994068;27;45403;-77
2022/01/23 13:35:14;;;;;;;;;28.75;20.75;;;;;5.70;65.07;102983.94;4995273;27;45552;-76
2022/01/23 13:37:44;;;;;;;;;25.25;20.50;;;;;5.23;64.46;102880.72;4997810;27;45561;-74
2022/01/23 13:40:22;;;;;;;;;27.25;22.00;;;;;5.44;64.23;102925.25;4994659;27;45409;-74
2022/01/23 13:59:09;;;;;;;;;26.50;22.00;;;;;5.53;64.53;102911.06;4996440;27;45244;-74
2022/01/23 14:02:09;;;;;;;;;26.50;23.50;;;;;5.22;64.49;102847.72;4996830;27;45565;-76
2022/01/23 14:04:24;;;;;;;;;39.75;27.50;;;;;5.77;64.74;102941.88;4993136;27;45363;-73
2022/01/23 14:06:50;;;;;;;;;25.50;23.50;;;;;5.18;64.64;102828.50;4993130;27;46196;-74
2022/01/23 14:09:17;;;;;;;;;28.25;23.00;;;;;5.83;64.84;102939.63;4991885;27;45467;-74
2022/01/23 14:11:45;;;;;;;;;29.00;22.50;;;;;5.83;64.16;102942.22;4992202;27;45323;-74
2022/01/23 14:14:15;;;;;;;;;27.75;23.25;;;;;5.28;64.63;102840.31;4993695;27;45782;-75
2022/01/23 14:16:43;;;;;;;;;24.00;19.75;;;;;5.58;64.23;102885.34;4993103;27;45311;-77
2022/01/23 14:19:18;;;;;;;;;30.50;24.25;;;;;5.88;64.43;102919.06;4992379;27;45743;-74
2022/01/23 14:21:47;;;;;;;;;26.75;21.00;;;;;5.74;63.92;102892.28;4995996;27;45456;-74
2022/01/23 14:24:33;;;;;;;;;24.00;22.00;;;;;5.84;64.09;102907.63;4993996;27;45778;-73
2022/01/23 14:27:06;;;;;;;;;26.75;18.50;;;;;6.04;64.21;102926.06;4993410;27;45429;-75
2022/01/23 14:29:53;;;;;;;;;25.00;22.75;;;;;5.93;63.74;102908.13;4991931;27;45499;-75
2022/01/23 14:32:31;;;;;;;;;19.75;19.00;;;;;5.16;63.40;102766.88;4992972;27;45816;-75
2022/01/23 14:35:13;;;;;;;;;24.50;21.25;;;;;5.91;63.49;102886.34;4993727;27;45439;-75
2022/01/23 14:37:40;;;;;;;;;26.75;22.75;;;;;6.18;63.60;102925.13;4993244;27;45390;-73
2022/01/23 14:40:10;;;;;;;;;32.00;24.25;;;;;6.07;63.45;102895.00;4992943;27;45286;-74
